DAL8384 KCLT-KCHS
Flight info
| Callsign | DAL8384 |
|---|---|
| Flight time | 0h 43m |
| Altitude | 25000 |
| Route | KWEEN5 UNJAM OSPRI7 |
| Aircraft | SF50/L-SDGRWY/L |
Departure
| Time | 2026-05-05 00:56 |
|---|---|
| Airport | Charlotte Douglas International Airport (KCLT) |
Arrival
| Time | 2026-05-05 01:39 |
|---|---|
| Airport | Charleston International Airport (KCHS) |
| Time | Latitude | Longitude | Altitude | Speed | Heading |
|---|---|---|---|---|---|
| 2026-05-05 00:38 | 35.21794 | -80.94471 | 714 ft | 0 kts | 294° |
| 2026-05-05 00:46 | 35.21792 | -80.94467 | 714 ft | 3 kts | 294° |
| 2026-05-05 00:47 | 35.21785 | -80.94447 | 716 ft | 3 kts | 294° |
| 2026-05-05 00:47 | 35.21780 | -80.94428 | 718 ft | 2 kts | 246° |
| 2026-05-05 00:47 | 35.21784 | -80.94426 | 717 ft | 0 kts | 168° |
| 2026-05-05 00:48 | 35.21764 | -80.94421 | 716 ft | 9 kts | 171° |
| 2026-05-05 00:48 | 35.21715 | -80.94390 | 715 ft | 8 kts | 165° |
| 2026-05-05 00:48 | 35.21680 | -80.94332 | 715 ft | 12 kts | 98° |
| 2026-05-05 00:49 | 35.21671 | -80.94247 | 718 ft | 9 kts | 93° |
| 2026-05-05 00:49 | 35.21689 | -80.94174 | 719 ft | 0 kts | 43° |
| 2026-05-05 00:49 | 35.21693 | -80.94170 | 719 ft | 5 kts | 45° |
| 2026-05-05 00:50 | 35.21718 | -80.94136 | 717 ft | 9 kts | 60° |
| 2026-05-05 00:50 | 35.21789 | -80.94038 | 719 ft | 19 kts | 50° |
| 2026-05-05 00:50 | 35.21827 | -80.93987 | 720 ft | 0 kts | 50° |
| 2026-05-05 00:50 | 35.21828 | -80.93986 | 720 ft | 3 kts | 49° |
| 2026-05-05 00:51 | 35.21919 | -80.93924 | 722 ft | 20 kts | 40° |
| 2026-05-05 00:51 | 35.22002 | -80.93805 | 723 ft | 20 kts | 33° |
| 2026-05-05 00:51 | 35.22125 | -80.93805 | 722 ft | 16 kts | 354° |
| 2026-05-05 00:51 | 35.22201 | -80.93741 | 723 ft | 14 kts | 45° |
| 2026-05-05 00:52 | 35.22292 | -80.93734 | 723 ft | 13 kts | 355° |
| 2026-05-05 00:52 | 35.22376 | -80.93742 | 724 ft | 13 kts | 356° |
| 2026-05-05 00:52 | 35.22471 | -80.93750 | 725 ft | 14 kts | 356° |
| 2026-05-05 00:52 | 35.22501 | -80.93735 | 726 ft | 0 kts | 61° |
| 2026-05-05 00:54 | 35.22507 | -80.93681 | 726 ft | 15 kts | 87° |
| 2026-05-05 00:54 | 35.22454 | -80.93613 | 725 ft | 9 kts | 176° |
| 2026-05-05 00:54 | 35.22452 | -80.93613 | 725 ft | 0 kts | 175° |
| 2026-05-05 00:55 | 35.22277 | -80.93598 | 723 ft | 64 kts | 176° |
| 2026-05-05 00:55 | 35.21622 | -80.93535 | 853 ft | 105 kts | 175° |
| 2026-05-05 00:55 | 35.20869 | -80.93469 | 1167 ft | 124 kts | 175° |
| 2026-05-05 00:56 | 35.19927 | -80.93325 | 1842 ft | 149 kts | 175° |
| 2026-05-05 00:56 | 35.18897 | -80.93126 | 2840 ft | 148 kts | 174° |
| 2026-05-05 00:56 | 35.17855 | -80.92909 | 3441 ft | 157 kts | 174° |
| 2026-05-05 00:56 | 35.16777 | -80.92680 | 4135 ft | 158 kts | 174° |
| 2026-05-05 00:57 | 35.15686 | -80.92445 | 4820 ft | 160 kts | 174° |
| 2026-05-05 00:57 | 35.14574 | -80.92211 | 5419 ft | 165 kts | 174° |
| 2026-05-05 00:57 | 35.13418 | -80.91970 | 6008 ft | 172 kts | 174° |
| 2026-05-05 00:57 | 35.12216 | -80.91764 | 6583 ft | 177 kts | 177° |
| 2026-05-05 00:58 | 35.10987 | -80.91567 | 7173 ft | 179 kts | 176° |
| 2026-05-05 00:58 | 35.09746 | -80.91364 | 7775 ft | 181 kts | 176° |
| 2026-05-05 00:58 | 35.08510 | -80.91159 | 8381 ft | 182 kts | 176° |
| 2026-05-05 00:58 | 35.07247 | -80.90949 | 8999 ft | 185 kts | 177° |
| 2026-05-05 00:59 | 35.05954 | -80.90740 | 9575 ft | 189 kts | 176° |
| 2026-05-05 00:59 | 35.04648 | -80.90520 | 10177 ft | 191 kts | 177° |
| 2026-05-05 00:59 | 35.03324 | -80.90304 | 10733 ft | 193 kts | 177° |
| 2026-05-05 00:59 | 35.01982 | -80.90081 | 11287 ft | 196 kts | 177° |
| 2026-05-05 01:00 | 35.00620 | -80.89858 | 11841 ft | 199 kts | 177° |
| 2026-05-05 01:00 | 34.99242 | -80.89629 | 12394 ft | 201 kts | 177° |
| 2026-05-05 01:00 | 34.97842 | -80.89403 | 12943 ft | 204 kts | 177° |
| 2026-05-05 01:00 | 34.96425 | -80.89171 | 13487 ft | 207 kts | 177° |
| 2026-05-05 01:01 | 34.94989 | -80.88934 | 13998 ft | 210 kts | 177° |
| 2026-05-05 01:01 | 34.93537 | -80.88694 | 14486 ft | 211 kts | 177° |
| 2026-05-05 01:01 | 34.92093 | -80.88457 | 14966 ft | 213 kts | 178° |
| 2026-05-05 01:01 | 34.90618 | -80.88213 | 15442 ft | 215 kts | 178° |
| 2026-05-05 01:02 | 34.89127 | -80.87969 | 15924 ft | 217 kts | 177° |
| 2026-05-05 01:02 | 34.87629 | -80.87724 | 16400 ft | 218 kts | 178° |
| 2026-05-05 01:02 | 34.86118 | -80.87474 | 16867 ft | 220 kts | 178° |
| 2026-05-05 01:02 | 34.84594 | -80.87225 | 17327 ft | 222 kts | 178° |
| 2026-05-05 01:03 | 34.83060 | -80.86973 | 17789 ft | 223 kts | 178° |
| 2026-05-05 01:03 | 34.81514 | -80.86719 | 18234 ft | 225 kts | 178° |
| 2026-05-05 01:03 | 34.79956 | -80.86463 | 18633 ft | 227 kts | 178° |
| 2026-05-05 01:03 | 34.78391 | -80.86206 | 19029 ft | 228 kts | 178° |
| 2026-05-05 01:04 | 34.76835 | -80.85952 | 19418 ft | 229 kts | 179° |
| 2026-05-05 01:04 | 34.73664 | -80.85431 | 20193 ft | 231 kts | 179° |
| 2026-05-05 01:04 | 34.72066 | -80.85170 | 20577 ft | 232 kts | 179° |
| 2026-05-05 01:05 | 34.70461 | -80.84908 | 20957 ft | 233 kts | 179° |
| 2026-05-05 01:05 | 34.68853 | -80.84645 | 21368 ft | 233 kts | 179° |
| 2026-05-05 01:05 | 34.67252 | -80.84425 | 21775 ft | 230 kts | 183° |
| 2026-05-05 01:05 | 34.65656 | -80.84289 | 22189 ft | 230 kts | 184° |
| 2026-05-05 01:06 | 34.64066 | -80.84146 | 22607 ft | 228 kts | 183° |
| 2026-05-05 01:06 | 34.62488 | -80.84002 | 23041 ft | 227 kts | 184° |
| 2026-05-05 01:06 | 34.60915 | -80.83858 | 23462 ft | 226 kts | 184° |
| 2026-05-05 01:06 | 34.59349 | -80.83715 | 23859 ft | 225 kts | 184° |
| 2026-05-05 01:07 | 34.57807 | -80.83576 | 24216 ft | 225 kts | 184° |
| 2026-05-05 01:07 | 34.56248 | -80.83434 | 24582 ft | 224 kts | 184° |
| 2026-05-05 01:07 | 34.54693 | -80.83292 | 24952 ft | 224 kts | 184° |
| 2026-05-05 01:07 | 34.53100 | -80.83154 | 25045 ft | 237 kts | 184° |
| 2026-05-05 01:08 | 34.51407 | -80.83004 | 25053 ft | 250 kts | 183° |
| 2026-05-05 01:08 | 34.49637 | -80.82840 | 25056 ft | 260 kts | 182° |
| 2026-05-05 01:08 | 34.47803 | -80.82671 | 25055 ft | 269 kts | 182° |
| 2026-05-05 01:08 | 34.45911 | -80.82498 | 25055 ft | 277 kts | 182° |
| 2026-05-05 01:09 | 34.43962 | -80.82323 | 25055 ft | 285 kts | 182° |
| 2026-05-05 01:09 | 34.41955 | -80.82140 | 25055 ft | 293 kts | 182° |
| 2026-05-05 01:09 | 34.39906 | -80.81954 | 25056 ft | 298 kts | 182° |
| 2026-05-05 01:09 | 34.37848 | -80.81767 | 25042 ft | 302 kts | 181° |
| 2026-05-05 01:10 | 34.35736 | -80.81574 | 25047 ft | 306 kts | 181° |
| 2026-05-05 01:10 | 34.33608 | -80.81382 | 25049 ft | 309 kts | 181° |
| 2026-05-05 01:10 | 34.31458 | -80.81187 | 25050 ft | 311 kts | 181° |
| 2026-05-05 01:10 | 34.29293 | -80.80991 | 25051 ft | 313 kts | 181° |
| 2026-05-05 01:11 | 34.27115 | -80.80795 | 25050 ft | 314 kts | 181° |
| 2026-05-05 01:11 | 34.24930 | -80.80597 | 25051 ft | 316 kts | 181° |
| 2026-05-05 01:11 | 34.22737 | -80.80398 | 25051 ft | 316 kts | 181° |
| 2026-05-05 01:11 | 34.20542 | -80.80231 | 25050 ft | 315 kts | 183° |
| 2026-05-05 01:12 | 34.18333 | -80.80098 | 24626 ft | 319 kts | 182° |
| 2026-05-05 01:12 | 34.16151 | -80.79941 | 24094 ft | 309 kts | 182° |
| 2026-05-05 01:12 | 34.14025 | -80.79798 | 23554 ft | 304 kts | 182° |
| 2026-05-05 01:12 | 34.11932 | -80.79674 | 22920 ft | 307 kts | 182° |
| 2026-05-05 01:13 | 34.09790 | -80.79540 | 22309 ft | 309 kts | 182° |
| 2026-05-05 01:13 | 34.07635 | -80.79397 | 21716 ft | 311 kts | 181° |
| 2026-05-05 01:13 | 34.05478 | -80.79256 | 21136 ft | 311 kts | 181° |
| 2026-05-05 01:13 | 34.03322 | -80.79120 | 20638 ft | 311 kts | 181° |
| 2026-05-05 01:14 | 34.01141 | -80.78981 | 20147 ft | 315 kts | 181° |
| 2026-05-05 01:14 | 33.98950 | -80.78840 | 19665 ft | 317 kts | 181° |
| 2026-05-05 01:14 | 33.96742 | -80.78698 | 19185 ft | 318 kts | 181° |
| 2026-05-05 01:14 | 33.94530 | -80.78556 | 18720 ft | 318 kts | 181° |
| 2026-05-05 01:15 | 33.92317 | -80.78414 | 18241 ft | 318 kts | 180° |
| 2026-05-05 01:15 | 33.90105 | -80.78271 | 17712 ft | 318 kts | 180° |
| 2026-05-05 01:15 | 33.87921 | -80.78133 | 17198 ft | 319 kts | 180° |
| 2026-05-05 01:15 | 33.85700 | -80.77991 | 16680 ft | 320 kts | 180° |
| 2026-05-05 01:16 | 33.83489 | -80.77849 | 16175 ft | 316 kts | 180° |
| 2026-05-05 01:16 | 33.81304 | -80.77708 | 15735 ft | 312 kts | 179° |
| 2026-05-05 01:16 | 33.79141 | -80.77571 | 15365 ft | 312 kts | 179° |
| 2026-05-05 01:16 | 33.76972 | -80.77434 | 15001 ft | 313 kts | 179° |
| 2026-05-05 01:17 | 33.74806 | -80.77294 | 14726 ft | 309 kts | 179° |
| 2026-05-05 01:17 | 33.72667 | -80.77156 | 14498 ft | 308 kts | 179° |
| 2026-05-05 01:17 | 33.70523 | -80.77021 | 14266 ft | 309 kts | 179° |
| 2026-05-05 01:17 | 33.68369 | -80.76885 | 14035 ft | 310 kts | 179° |
| 2026-05-05 01:18 | 33.66259 | -80.76750 | 13801 ft | 307 kts | 179° |
| 2026-05-05 01:18 | 33.64133 | -80.76614 | 13545 ft | 305 kts | 179° |
| 2026-05-05 01:18 | 33.62013 | -80.76479 | 13286 ft | 305 kts | 179° |
| 2026-05-05 01:18 | 33.59904 | -80.76345 | 13026 ft | 303 kts | 179° |
| 2026-05-05 01:19 | 33.57803 | -80.76212 | 12767 ft | 301 kts | 178° |
| 2026-05-05 01:19 | 33.55716 | -80.76079 | 12513 ft | 300 kts | 179° |
| 2026-05-05 01:19 | 33.53639 | -80.75948 | 12263 ft | 298 kts | 179° |
| 2026-05-05 01:19 | 33.51584 | -80.75816 | 12013 ft | 294 kts | 178° |
| 2026-05-05 01:20 | 33.49552 | -80.75688 | 11765 ft | 292 kts | 178° |
| 2026-05-05 01:20 | 33.47526 | -80.75560 | 11518 ft | 291 kts | 178° |
| 2026-05-05 01:20 | 33.45532 | -80.75434 | 11270 ft | 290 kts | 178° |
| 2026-05-05 01:20 | 33.43526 | -80.75307 | 11034 ft | 287 kts | 177° |
| 2026-05-05 01:21 | 33.41637 | -80.75185 | 10989 ft | 258 kts | 177° |
| 2026-05-05 01:21 | 33.39870 | -80.75073 | 10980 ft | 253 kts | 178° |
| 2026-05-05 01:21 | 33.38121 | -80.74964 | 10979 ft | 251 kts | 178° |
| 2026-05-05 01:21 | 33.36379 | -80.74854 | 10978 ft | 250 kts | 178° |
| 2026-05-05 01:22 | 33.34651 | -80.74684 | 10977 ft | 249 kts | 171° |
| 2026-05-05 01:22 | 33.33023 | -80.73974 | 10981 ft | 250 kts | 152° |
| 2026-05-05 01:22 | 33.31520 | -80.72935 | 10981 ft | 250 kts | 150° |
| 2026-05-05 01:22 | 33.30023 | -80.71917 | 10977 ft | 251 kts | 151° |
| 2026-05-05 01:23 | 33.28506 | -80.70892 | 10980 ft | 251 kts | 151° |
| 2026-05-05 01:23 | 33.26986 | -80.69858 | 10977 ft | 251 kts | 150° |
| 2026-05-05 01:23 | 33.25464 | -80.68824 | 10976 ft | 252 kts | 151° |
| 2026-05-05 01:23 | 33.24016 | -80.67667 | 10972 ft | 251 kts | 139° |
| 2026-05-05 01:24 | 33.22917 | -80.66048 | 10968 ft | 252 kts | 122° |
| 2026-05-05 01:24 | 33.22182 | -80.64117 | 10513 ft | 256 kts | 111° |
| 2026-05-05 01:24 | 33.21540 | -80.62137 | 9994 ft | 256 kts | 112° |
| 2026-05-05 01:24 | 33.20881 | -80.60191 | 9436 ft | 251 kts | 113° |
| 2026-05-05 01:25 | 33.20238 | -80.58309 | 8888 ft | 246 kts | 113° |
| 2026-05-05 01:25 | 33.19600 | -80.56424 | 8329 ft | 244 kts | 113° |
| 2026-05-05 01:25 | 33.18968 | -80.54555 | 7788 ft | 242 kts | 113° |
| 2026-05-05 01:25 | 33.18339 | -80.52695 | 7252 ft | 242 kts | 112° |
| 2026-05-05 01:26 | 33.17709 | -80.50836 | 6728 ft | 241 kts | 113° |
| 2026-05-05 01:26 | 33.17084 | -80.48993 | 6188 ft | 239 kts | 113° |
| 2026-05-05 01:26 | 33.16459 | -80.47149 | 5637 ft | 240 kts | 113° |
| 2026-05-05 01:26 | 33.15831 | -80.45299 | 5099 ft | 241 kts | 113° |
| 2026-05-05 01:27 | 33.15198 | -80.43434 | 4557 ft | 243 kts | 114° |
| 2026-05-05 01:27 | 33.14571 | -80.41590 | 4047 ft | 243 kts | 114° |
| 2026-05-05 01:27 | 33.13954 | -80.39761 | 3994 ft | 234 kts | 113° |
| 2026-05-05 01:27 | 33.13622 | -80.37892 | 3990 ft | 226 kts | 94° |
| 2026-05-05 01:28 | 33.13629 | -80.36091 | 3990 ft | 210 kts | 91° |
| 2026-05-05 01:28 | 33.13606 | -80.34432 | 3989 ft | 190 kts | 94° |
| 2026-05-05 01:28 | 33.13583 | -80.32942 | 3989 ft | 168 kts | 93° |
| 2026-05-05 01:28 | 33.13569 | -80.31620 | 3988 ft | 153 kts | 92° |
| 2026-05-05 01:29 | 33.13555 | -80.30381 | 3992 ft | 148 kts | 94° |
| 2026-05-05 01:29 | 33.13541 | -80.29147 | 3995 ft | 153 kts | 92° |
| 2026-05-05 01:29 | 33.13528 | -80.27871 | 3998 ft | 155 kts | 93° |
| 2026-05-05 01:29 | 33.13515 | -80.26590 | 3999 ft | 154 kts | 93° |
| 2026-05-05 01:30 | 33.13501 | -80.25306 | 3998 ft | 155 kts | 93° |
| 2026-05-05 01:30 | 33.13487 | -80.24018 | 3999 ft | 155 kts | 92° |
| 2026-05-05 01:30 | 33.13457 | -80.22728 | 3994 ft | 155 kts | 99° |
| 2026-05-05 01:30 | 33.13059 | -80.21566 | 3933 ft | 154 kts | 128° |
| 2026-05-05 01:31 | 33.12218 | -80.20674 | 3454 ft | 168 kts | 152° |
| 2026-05-05 01:31 | 33.11205 | -80.19944 | 2968 ft | 172 kts | 150° |
| 2026-05-05 01:31 | 33.10212 | -80.19183 | 2488 ft | 172 kts | 150° |
| 2026-05-05 01:31 | 33.09215 | -80.18420 | 1988 ft | 169 kts | 151° |
| 2026-05-05 01:32 | 33.08226 | -80.17666 | 1608 ft | 167 kts | 150° |
| 2026-05-05 01:32 | 33.07296 | -80.16957 | 1594 ft | 151 kts | 151° |
| 2026-05-05 01:32 | 33.06455 | -80.16313 | 1591 ft | 137 kts | 151° |
| 2026-05-05 01:32 | 33.05684 | -80.15728 | 1591 ft | 126 kts | 152° |
| 2026-05-05 01:33 | 33.04997 | -80.15211 | 1592 ft | 111 kts | 152° |
| 2026-05-05 01:33 | 33.04345 | -80.14712 | 1595 ft | 113 kts | 152° |
| 2026-05-05 01:33 | 33.03668 | -80.14195 | 1600 ft | 118 kts | 152° |
| 2026-05-05 01:33 | 33.02977 | -80.13673 | 1609 ft | 121 kts | 152° |
| 2026-05-05 01:34 | 33.02262 | -80.13130 | 1611 ft | 123 kts | 152° |
| 2026-05-05 01:34 | 33.01536 | -80.12578 | 1613 ft | 124 kts | 152° |
| 2026-05-05 01:34 | 33.00805 | -80.12025 | 1615 ft | 123 kts | 152° |
| 2026-05-05 01:34 | 33.00092 | -80.11481 | 1612 ft | 121 kts | 152° |
| 2026-05-05 01:35 | 32.99387 | -80.10943 | 1608 ft | 120 kts | 152° |
| 2026-05-05 01:35 | 32.98686 | -80.10413 | 1609 ft | 119 kts | 152° |
| 2026-05-05 01:35 | 32.97985 | -80.09898 | 1593 ft | 120 kts | 152° |
| 2026-05-05 01:35 | 32.97270 | -80.09367 | 1460 ft | 121 kts | 152° |
| 2026-05-05 01:36 | 32.96594 | -80.08848 | 1301 ft | 112 kts | 152° |
| 2026-05-05 01:36 | 32.95944 | -80.08354 | 1152 ft | 110 kts | 153° |
| 2026-05-05 01:36 | 32.95324 | -80.07879 | 1010 ft | 99 kts | 153° |
| 2026-05-05 01:36 | 32.94768 | -80.07450 | 881 ft | 93 kts | 151° |
| 2026-05-05 01:37 | 32.94218 | -80.07035 | 739 ft | 99 kts | 145° |
| 2026-05-05 01:37 | 32.93676 | -80.06594 | 611 ft | 92 kts | 149° |
| 2026-05-05 01:37 | 32.93143 | -80.06199 | 512 ft | 89 kts | 148° |
| 2026-05-05 01:37 | 32.92644 | -80.05802 | 422 ft | 87 kts | 148° |
| 2026-05-05 01:38 | 32.92135 | -80.05436 | 350 ft | 85 kts | 145° |
| 2026-05-05 01:38 | 32.91627 | -80.05064 | 194 ft | 86 kts | 140° |
| 2026-05-05 01:38 | 32.91138 | -80.04694 | 82 ft | 75 kts | 143° |
| 2026-05-05 01:38 | 32.90777 | -80.04415 | 53 ft | 52 kts | 147° |
| 2026-05-05 01:39 | 32.90497 | -80.04204 | 47 ft | 44 kts | 147° |
| 2026-05-05 01:39 | 32.90222 | -80.03995 | 50 ft | 48 kts | 147° |
| 2026-05-05 01:39 | 32.90038 | -80.03855 | 50 ft | 15 kts | 149° |
| 2026-05-05 01:39 | 32.89953 | -80.03791 | 48 ft | 32 kts | 147° |
| 2026-05-05 01:40 | 32.89792 | -80.03667 | 46 ft | 27 kts | 147° |
| 2026-05-05 01:40 | 32.89601 | -80.03582 | 40 ft | 32 kts | 181° |
| 2026-05-05 01:40 | 32.89454 | -80.03587 | 41 ft | 12 kts | 182° |
| 2026-05-05 01:40 | 32.89379 | -80.03588 | 41 ft | 12 kts | 184° |
| 2026-05-05 01:41 | 32.89267 | -80.03593 | 41 ft | 17 kts | 181° |
| 2026-05-05 01:41 | 32.89159 | -80.03597 | 41 ft | 14 kts | 181° |
| 2026-05-05 01:41 | 32.89067 | -80.03599 | 40 ft | 14 kts | 181° |
| 2026-05-05 01:41 | 32.88965 | -80.03608 | 38 ft | 16 kts | 187° |
| 2026-05-05 01:42 | 32.88850 | -80.03628 | 34 ft | 15 kts | 187° |
| 2026-05-05 01:42 | 32.88759 | -80.03664 | 32 ft | 13 kts | 247° |
| 2026-05-05 01:42 | 32.88743 | -80.03764 | 32 ft | 12 kts | 236° |
| 2026-05-05 01:42 | 32.88682 | -80.03796 | 33 ft | 9 kts | 194° |
| 2026-05-05 01:43 | 32.88648 | -80.03804 | 33 ft | 0 kts | 170° |